SUR4729 LSZS-LEMH
Flight info
| Callsign | SUR4729 |
|---|---|
| Flight time | 1h 40m |
| Altitude | 23000 |
| Route | DILEB DCT BORDI DCT RUBAS DCT RIXOT |
| Aircraft | B350/L-SBGRW/S |
Departure
| Time | 2026-04-25 00:25 |
|---|---|
| Airport | Engadin Airport (LSZS) |
Arrival
| Time | 2026-04-25 02:05 |
|---|---|
| Airport | Menorca Airport (LEMH) |
| Time | Latitude | Longitude | Altitude | Speed | Heading |
|---|---|---|---|---|---|
| 2026-04-24 23:51 | 46.53086 | 9.87949 | 5603 ft | 0 kts | 296° |
| 2026-04-25 00:17 | 46.53082 | 9.87963 | 5603 ft | 2 kts | 296° |
| 2026-04-25 00:18 | 46.53083 | 9.87982 | 5604 ft | 2 kts | 220° |
| 2026-04-25 00:18 | 46.53086 | 9.87985 | 5599 ft | 0 kts | 211° |
| 2026-04-25 00:19 | 46.53085 | 9.87985 | 5604 ft | 1 kts | 210° |
| 2026-04-25 00:19 | 46.53030 | 9.87942 | 5602 ft | 9 kts | 184° |
| 2026-04-25 00:19 | 46.52996 | 9.87964 | 5600 ft | 0 kts | 120° |
| 2026-04-25 00:20 | 46.52964 | 9.88046 | 5601 ft | 15 kts | 120° |
| 2026-04-25 00:21 | 46.52962 | 9.88163 | 5600 ft | 14 kts | 32° |
| 2026-04-25 00:21 | 46.53049 | 9.88233 | 5600 ft | 16 kts | 29° |
| 2026-04-25 00:21 | 46.53150 | 9.88314 | 5599 ft | 17 kts | 29° |
| 2026-04-25 00:21 | 46.53242 | 9.88388 | 5601 ft | 15 kts | 30° |
| 2026-04-25 00:22 | 46.53338 | 9.88467 | 5599 ft | 18 kts | 30° |
| 2026-04-25 00:22 | 46.53461 | 9.88567 | 5593 ft | 22 kts | 29° |
| 2026-04-25 00:22 | 46.53577 | 9.88661 | 5584 ft | 22 kts | 29° |
| 2026-04-25 00:22 | 46.53704 | 9.88765 | 5585 ft | 19 kts | 29° |
| 2026-04-25 00:23 | 46.53825 | 9.88862 | 5582 ft | 18 kts | 30° |
| 2026-04-25 00:23 | 46.53938 | 9.88954 | 5581 ft | 16 kts | 28° |
| 2026-04-25 00:23 | 46.54024 | 9.89024 | 5581 ft | 15 kts | 29° |
| 2026-04-25 00:23 | 46.54100 | 9.89056 | 5581 ft | 12 kts | 335° |
| 2026-04-25 00:24 | 46.54117 | 9.89035 | 5582 ft | 0 kts | 304° |
| 2026-04-25 00:24 | 46.54126 | 9.89009 | 5582 ft | 12 kts | 287° |
| 2026-04-25 00:25 | 46.54066 | 9.88915 | 5581 ft | 25 kts | 208° |
| 2026-04-25 00:25 | 46.53670 | 9.88593 | 5585 ft | 100 kts | 209° |
| 2026-04-25 00:25 | 46.52940 | 9.87985 | 5791 ft | 129 kts | 211° |
| 2026-04-25 00:25 | 46.52211 | 9.87186 | 6479 ft | 133 kts | 224° |
| 2026-04-25 00:26 | 46.51560 | 9.86195 | 7097 ft | 140 kts | 226° |
| 2026-04-25 00:26 | 46.50785 | 9.85174 | 7686 ft | 157 kts | 222° |
| 2026-04-25 00:26 | 46.49947 | 9.84066 | 8385 ft | 169 kts | 220° |
| 2026-04-25 00:26 | 46.48951 | 9.82999 | 8989 ft | 188 kts | 216° |
| 2026-04-25 00:27 | 46.47868 | 9.81907 | 9678 ft | 194 kts | 216° |
| 2026-04-25 00:27 | 46.46711 | 9.80765 | 10348 ft | 199 kts | 216° |
| 2026-04-25 00:27 | 46.45573 | 9.79660 | 11068 ft | 199 kts | 217° |
| 2026-04-25 00:27 | 46.44487 | 9.78334 | 11543 ft | 210 kts | 225° |
| 2026-04-25 00:28 | 46.43431 | 9.76836 | 12112 ft | 215 kts | 226° |
| 2026-04-25 00:28 | 46.42385 | 9.75226 | 12632 ft | 222 kts | 228° |
| 2026-04-25 00:28 | 46.41333 | 9.73544 | 13057 ft | 233 kts | 230° |
| 2026-04-25 00:28 | 46.40272 | 9.71710 | 13483 ft | 239 kts | 233° |
| 2026-04-25 00:29 | 46.39275 | 9.69718 | 13603 ft | 257 kts | 235° |
| 2026-04-25 00:29 | 46.38217 | 9.67544 | 13720 ft | 269 kts | 236° |
| 2026-04-25 00:29 | 46.37101 | 9.65333 | 13958 ft | 273 kts | 232° |
| 2026-04-25 00:29 | 46.35833 | 9.63306 | 14267 ft | 273 kts | 223° |
| 2026-04-25 00:30 | 46.34326 | 9.61651 | 14615 ft | 272 kts | 211° |
| 2026-04-25 00:30 | 46.32598 | 9.60526 | 14928 ft | 273 kts | 198° |
| 2026-04-25 00:30 | 46.30722 | 9.59920 | 15103 ft | 279 kts | 187° |
| 2026-04-25 00:30 | 46.28773 | 9.59837 | 15321 ft | 282 kts | 177° |
| 2026-04-25 00:31 | 46.26822 | 9.60168 | 15591 ft | 281 kts | 169° |
| 2026-04-25 00:31 | 46.24961 | 9.60956 | 15902 ft | 279 kts | 155° |
| 2026-04-25 00:31 | 46.23293 | 9.62399 | 16153 ft | 280 kts | 145° |
| 2026-04-25 00:31 | 46.21703 | 9.64032 | 16402 ft | 281 kts | 146° |
| 2026-04-25 00:32 | 46.19958 | 9.65320 | 16655 ft | 282 kts | 159° |
| 2026-04-25 00:32 | 46.18093 | 9.66190 | 16898 ft | 283 kts | 165° |
| 2026-04-25 00:32 | 46.16171 | 9.66795 | 17157 ft | 283 kts | 170° |
| 2026-04-25 00:32 | 46.14886 | 9.67079 | 17331 ft | 283 kts | 173° |
| 2026-04-25 00:33 | 46.12263 | 9.67453 | 17679 ft | 283 kts | 175° |
| 2026-04-25 00:33 | 46.10302 | 9.67637 | 17946 ft | 283 kts | 177° |
| 2026-04-25 00:33 | 46.08336 | 9.67750 | 18207 ft | 282 kts | 180° |
| 2026-04-25 00:33 | 46.06385 | 9.67510 | 18457 ft | 282 kts | 187° |
| 2026-04-25 00:34 | 46.04440 | 9.67151 | 18689 ft | 282 kts | 185° |
| 2026-04-25 00:34 | 46.02479 | 9.66926 | 18921 ft | 282 kts | 185° |
| 2026-04-25 00:34 | 46.00535 | 9.66593 | 19151 ft | 282 kts | 191° |
| 2026-04-25 00:34 | 45.98677 | 9.65703 | 19389 ft | 282 kts | 204° |
| 2026-04-25 00:35 | 45.96922 | 9.64444 | 19625 ft | 282 kts | 207° |
| 2026-04-25 00:35 | 45.95197 | 9.63105 | 19860 ft | 282 kts | 208° |
| 2026-04-25 00:35 | 45.93478 | 9.61737 | 20098 ft | 282 kts | 209° |
| 2026-04-25 00:35 | 45.91770 | 9.60359 | 20343 ft | 282 kts | 210° |
| 2026-04-25 00:36 | 45.90150 | 9.58775 | 20561 ft | 282 kts | 217° |
| 2026-04-25 00:36 | 45.88572 | 9.57088 | 20788 ft | 283 kts | 214° |
| 2026-04-25 00:36 | 45.86951 | 9.55491 | 21010 ft | 283 kts | 214° |
| 2026-04-25 00:36 | 45.85348 | 9.53841 | 21235 ft | 283 kts | 215° |
| 2026-04-25 00:37 | 45.83738 | 9.52208 | 21469 ft | 283 kts | 214° |
| 2026-04-25 00:37 | 45.82131 | 9.50586 | 21696 ft | 283 kts | 215° |
| 2026-04-25 00:37 | 45.80521 | 9.48946 | 21926 ft | 283 kts | 214° |
| 2026-04-25 00:37 | 45.78910 | 9.47318 | 22157 ft | 283 kts | 214° |
| 2026-04-25 00:38 | 45.77308 | 9.45696 | 22395 ft | 283 kts | 215° |
| 2026-04-25 00:38 | 45.75699 | 9.44067 | 22633 ft | 283 kts | 214° |
| 2026-04-25 00:38 | 45.74091 | 9.42442 | 22887 ft | 283 kts | 214° |
| 2026-04-25 00:38 | 45.72467 | 9.40801 | 22993 ft | 288 kts | 214° |
| 2026-04-25 00:39 | 45.70838 | 9.39156 | 23042 ft | 293 kts | 214° |
| 2026-04-25 00:39 | 45.69158 | 9.37463 | 23065 ft | 297 kts | 214° |
| 2026-04-25 00:39 | 45.67456 | 9.35748 | 23069 ft | 301 kts | 214° |
| 2026-04-25 00:39 | 45.65733 | 9.34012 | 23074 ft | 304 kts | 214° |
| 2026-04-25 00:40 | 45.63994 | 9.32262 | 23076 ft | 307 kts | 215° |
| 2026-04-25 00:40 | 45.62245 | 9.30502 | 23078 ft | 308 kts | 214° |
| 2026-04-25 00:40 | 45.60485 | 9.28736 | 23041 ft | 310 kts | 214° |
| 2026-04-25 00:40 | 45.58719 | 9.26962 | 23040 ft | 311 kts | 214° |
| 2026-04-25 00:41 | 45.56947 | 9.25184 | 23037 ft | 312 kts | 214° |
| 2026-04-25 00:41 | 45.55173 | 9.23406 | 23039 ft | 312 kts | 214° |
| 2026-04-25 00:41 | 45.53398 | 9.21627 | 23037 ft | 312 kts | 214° |
| 2026-04-25 00:41 | 45.51617 | 9.19846 | 23040 ft | 313 kts | 214° |
| 2026-04-25 00:42 | 45.49839 | 9.18068 | 23037 ft | 313 kts | 214° |
| 2026-04-25 00:42 | 45.48053 | 9.16283 | 23034 ft | 313 kts | 214° |
| 2026-04-25 00:42 | 45.46271 | 9.14503 | 23040 ft | 313 kts | 214° |
| 2026-04-25 00:42 | 45.44487 | 9.12725 | 23043 ft | 313 kts | 214° |
| 2026-04-25 00:43 | 45.42705 | 9.10946 | 23043 ft | 313 kts | 214° |
| 2026-04-25 00:43 | 45.40917 | 9.09166 | 23040 ft | 313 kts | 214° |
| 2026-04-25 00:43 | 45.39133 | 9.07391 | 23039 ft | 313 kts | 214° |
| 2026-04-25 00:43 | 45.37350 | 9.05617 | 23038 ft | 313 kts | 214° |
| 2026-04-25 00:44 | 45.35565 | 9.03844 | 23038 ft | 313 kts | 214° |
| 2026-04-25 00:44 | 45.33782 | 9.02072 | 23039 ft | 313 kts | 214° |
| 2026-04-25 00:44 | 45.31995 | 9.00300 | 23043 ft | 313 kts | 214° |
| 2026-04-25 00:44 | 45.30211 | 8.98530 | 23053 ft | 313 kts | 214° |
| 2026-04-25 00:45 | 45.28429 | 8.96766 | 23052 ft | 312 kts | 214° |
| 2026-04-25 00:45 | 45.26645 | 8.95000 | 23055 ft | 312 kts | 214° |
| 2026-04-25 00:45 | 45.24869 | 8.93242 | 23058 ft | 312 kts | 214° |
| 2026-04-25 00:45 | 45.23086 | 8.91481 | 23058 ft | 312 kts | 214° |
| 2026-04-25 00:46 | 45.21303 | 8.89720 | 23060 ft | 312 kts | 214° |
| 2026-04-25 00:46 | 45.19519 | 8.87959 | 23065 ft | 312 kts | 214° |
| 2026-04-25 00:46 | 45.15954 | 8.84445 | 23069 ft | 312 kts | 214° |
| 2026-04-25 00:47 | 45.14171 | 8.82690 | 23065 ft | 312 kts | 214° |
| 2026-04-25 00:47 | 45.12388 | 8.80935 | 23068 ft | 312 kts | 214° |
| 2026-04-25 00:47 | 45.10606 | 8.79187 | 23066 ft | 312 kts | 214° |
| 2026-04-25 00:47 | 45.08825 | 8.77433 | 23068 ft | 312 kts | 214° |
| 2026-04-25 00:48 | 45.07041 | 8.75685 | 23072 ft | 312 kts | 214° |
| 2026-04-25 00:48 | 45.05260 | 8.73939 | 23063 ft | 312 kts | 214° |
| 2026-04-25 00:48 | 45.03477 | 8.72189 | 23067 ft | 312 kts | 214° |
| 2026-04-25 00:48 | 45.01693 | 8.70444 | 23065 ft | 312 kts | 214° |
| 2026-04-25 00:49 | 44.99913 | 8.68702 | 23063 ft | 312 kts | 214° |
| 2026-04-25 00:49 | 44.98129 | 8.66956 | 23066 ft | 312 kts | 214° |
| 2026-04-25 00:49 | 44.96348 | 8.65219 | 23065 ft | 312 kts | 214° |
| 2026-04-25 00:49 | 44.94561 | 8.63473 | 23062 ft | 312 kts | 214° |
| 2026-04-25 00:50 | 44.92796 | 8.61751 | 23059 ft | 312 kts | 214° |
| 2026-04-25 00:50 | 44.91011 | 8.60013 | 23059 ft | 312 kts | 214° |
| 2026-04-25 00:50 | 44.89224 | 8.58271 | 23059 ft | 312 kts | 214° |
| 2026-04-25 00:50 | 44.87438 | 8.56534 | 23063 ft | 312 kts | 214° |
| 2026-04-25 00:51 | 44.85651 | 8.54795 | 23061 ft | 312 kts | 214° |
| 2026-04-25 00:51 | 44.83863 | 8.53058 | 23062 ft | 312 kts | 214° |
| 2026-04-25 00:51 | 44.82077 | 8.51325 | 23066 ft | 312 kts | 214° |
| 2026-04-25 00:51 | 44.80291 | 8.49590 | 23064 ft | 312 kts | 214° |
| 2026-04-25 00:52 | 44.78504 | 8.47858 | 23074 ft | 312 kts | 214° |
| 2026-04-25 00:52 | 44.76713 | 8.46125 | 23064 ft | 312 kts | 214° |
| 2026-04-25 00:52 | 44.74924 | 8.44391 | 23064 ft | 312 kts | 214° |
| 2026-04-25 00:52 | 44.73135 | 8.42663 | 23067 ft | 312 kts | 214° |
| 2026-04-25 00:53 | 44.71346 | 8.40931 | 23071 ft | 312 kts | 214° |
| 2026-04-25 00:53 | 44.69559 | 8.39206 | 23074 ft | 312 kts | 214° |
| 2026-04-25 00:53 | 44.67769 | 8.37480 | 23071 ft | 312 kts | 214° |
| 2026-04-25 00:53 | 44.65983 | 8.35759 | 23072 ft | 312 kts | 214° |
| 2026-04-25 00:54 | 44.64193 | 8.34031 | 23071 ft | 312 kts | 214° |
| 2026-04-25 00:54 | 44.62405 | 8.32312 | 23076 ft | 312 kts | 214° |
| 2026-04-25 00:54 | 44.60614 | 8.30587 | 23072 ft | 311 kts | 214° |
| 2026-04-25 00:54 | 44.58829 | 8.28872 | 23076 ft | 311 kts | 214° |
| 2026-04-25 00:55 | 44.57036 | 8.27152 | 23077 ft | 311 kts | 214° |
| 2026-04-25 00:55 | 44.55252 | 8.25436 | 23082 ft | 312 kts | 214° |
| 2026-04-25 00:55 | 44.53483 | 8.23740 | 23076 ft | 312 kts | 214° |
| 2026-04-25 00:55 | 44.51690 | 8.22023 | 23076 ft | 312 kts | 214° |
| 2026-04-25 00:56 | 44.49901 | 8.20307 | 23079 ft | 312 kts | 214° |
| 2026-04-25 00:56 | 44.48108 | 8.18593 | 23087 ft | 312 kts | 214° |
| 2026-04-25 00:56 | 44.46317 | 8.16879 | 23085 ft | 312 kts | 214° |
| 2026-04-25 00:56 | 44.44519 | 8.15162 | 23078 ft | 312 kts | 214° |
| 2026-04-25 00:57 | 44.42726 | 8.13449 | 23080 ft | 312 kts | 214° |
| 2026-04-25 00:57 | 44.40930 | 8.11738 | 23080 ft | 313 kts | 214° |
| 2026-04-25 00:57 | 44.39137 | 8.10027 | 23076 ft | 313 kts | 214° |
| 2026-04-25 00:57 | 44.37334 | 8.08307 | 23084 ft | 313 kts | 214° |
| 2026-04-25 00:58 | 44.35535 | 8.06596 | 23083 ft | 313 kts | 214° |
| 2026-04-25 00:58 | 44.33737 | 8.04887 | 23085 ft | 313 kts | 214° |
| 2026-04-25 00:58 | 44.31933 | 8.03170 | 23079 ft | 313 kts | 214° |
| 2026-04-25 00:58 | 44.30129 | 8.01459 | 23082 ft | 313 kts | 214° |
| 2026-04-25 00:59 | 44.28331 | 7.99752 | 23081 ft | 313 kts | 214° |
| 2026-04-25 00:59 | 44.26525 | 7.98038 | 23079 ft | 313 kts | 214° |
| 2026-04-25 00:59 | 44.24722 | 7.96331 | 23079 ft | 313 kts | 214° |
| 2026-04-25 00:59 | 44.22923 | 7.94626 | 23081 ft | 313 kts | 214° |
| 2026-04-25 01:00 | 44.21117 | 7.92918 | 23079 ft | 313 kts | 214° |
| 2026-04-25 01:00 | 44.19313 | 7.91212 | 23086 ft | 314 kts | 214° |
| 2026-04-25 01:00 | 44.17507 | 7.89505 | 23083 ft | 314 kts | 214° |
| 2026-04-25 01:00 | 44.15697 | 7.87797 | 23085 ft | 314 kts | 214° |
| 2026-04-25 01:01 | 44.13891 | 7.86094 | 23078 ft | 314 kts | 214° |
| 2026-04-25 01:01 | 44.12696 | 7.84966 | 23082 ft | 314 kts | 214° |
| 2026-04-25 01:01 | 44.10272 | 7.82683 | 23079 ft | 314 kts | 214° |
| 2026-04-25 01:01 | 44.08463 | 7.80981 | 23079 ft | 314 kts | 214° |
| 2026-04-25 01:02 | 44.06674 | 7.79297 | 23083 ft | 315 kts | 214° |
| 2026-04-25 01:02 | 44.05448 | 7.78149 | 23078 ft | 315 kts | 214° |
| 2026-04-25 01:02 | 44.03027 | 7.75921 | 23079 ft | 315 kts | 213° |
| 2026-04-25 01:02 | 44.01167 | 7.74298 | 23075 ft | 316 kts | 208° |
| 2026-04-25 01:03 | 43.99207 | 7.72928 | 23079 ft | 316 kts | 207° |
| 2026-04-25 01:03 | 43.97279 | 7.71464 | 23076 ft | 316 kts | 209° |
| 2026-04-25 01:03 | 43.95968 | 7.70495 | 23077 ft | 316 kts | 208° |
| 2026-04-25 01:03 | 43.94021 | 7.69075 | 23076 ft | 316 kts | 208° |
| 2026-04-25 01:04 | 43.92083 | 7.67626 | 23078 ft | 317 kts | 208° |
| 2026-04-25 01:04 | 43.90132 | 7.66196 | 23074 ft | 317 kts | 208° |
| 2026-04-25 01:04 | 43.88210 | 7.64775 | 23086 ft | 318 kts | 208° |
| 2026-04-25 01:04 | 43.86258 | 7.63335 | 23078 ft | 318 kts | 208° |
| 2026-04-25 01:05 | 43.84303 | 7.61898 | 23079 ft | 318 kts | 208° |
| 2026-04-25 01:05 | 43.82349 | 7.60457 | 23075 ft | 318 kts | 208° |
| 2026-04-25 01:05 | 43.80389 | 7.59018 | 23077 ft | 319 kts | 208° |
| 2026-04-25 01:05 | 43.78432 | 7.57580 | 23071 ft | 319 kts | 208° |
| 2026-04-25 01:06 | 43.76473 | 7.56141 | 23072 ft | 319 kts | 208° |
| 2026-04-25 01:06 | 43.74515 | 7.54705 | 23072 ft | 319 kts | 208° |
| 2026-04-25 01:06 | 43.72557 | 7.53269 | 23071 ft | 318 kts | 208° |
| 2026-04-25 01:06 | 43.70600 | 7.51836 | 23071 ft | 319 kts | 208° |
| 2026-04-25 01:07 | 43.68644 | 7.50404 | 23073 ft | 319 kts | 208° |
| 2026-04-25 01:07 | 43.66681 | 7.48968 | 23072 ft | 319 kts | 208° |
| 2026-04-25 01:07 | 43.64722 | 7.47536 | 23071 ft | 319 kts | 208° |
| 2026-04-25 01:07 | 43.62760 | 7.46103 | 23073 ft | 319 kts | 208° |
| 2026-04-25 01:08 | 43.60802 | 7.44674 | 23071 ft | 319 kts | 208° |
| 2026-04-25 01:08 | 43.58835 | 7.43240 | 23071 ft | 319 kts | 208° |
| 2026-04-25 01:08 | 43.56870 | 7.41808 | 23068 ft | 320 kts | 208° |
| 2026-04-25 01:08 | 43.54902 | 7.40374 | 23072 ft | 320 kts | 208° |
| 2026-04-25 01:09 | 43.52932 | 7.38941 | 23070 ft | 320 kts | 208° |
| 2026-04-25 01:09 | 43.50960 | 7.37507 | 23070 ft | 320 kts | 208° |
| 2026-04-25 01:09 | 43.48988 | 7.36074 | 23070 ft | 320 kts | 208° |
| 2026-04-25 01:09 | 43.47040 | 7.34660 | 23070 ft | 321 kts | 208° |
| 2026-04-25 01:10 | 43.45042 | 7.33210 | 23068 ft | 321 kts | 208° |
| 2026-04-25 01:10 | 43.43092 | 7.31797 | 23072 ft | 321 kts | 208° |
| 2026-04-25 01:10 | 43.41088 | 7.30345 | 23072 ft | 321 kts | 208° |
| 2026-04-25 01:10 | 43.39133 | 7.28930 | 23072 ft | 322 kts | 208° |
| 2026-04-25 01:11 | 43.37127 | 7.27479 | 23073 ft | 322 kts | 208° |
| 2026-04-25 01:11 | 43.35170 | 7.26064 | 23071 ft | 322 kts | 208° |
| 2026-04-25 01:11 | 43.33185 | 7.24630 | 23075 ft | 323 kts | 208° |
| 2026-04-25 01:11 | 43.31197 | 7.23196 | 23078 ft | 323 kts | 208° |
| 2026-04-25 01:12 | 43.29206 | 7.21760 | 23072 ft | 323 kts | 208° |
| 2026-04-25 01:12 | 43.27214 | 7.20324 | 23075 ft | 323 kts | 208° |
| 2026-04-25 01:12 | 43.25218 | 7.18887 | 23079 ft | 324 kts | 208° |
| 2026-04-25 01:12 | 43.23225 | 7.17452 | 23079 ft | 324 kts | 208° |
| 2026-04-25 01:13 | 43.21228 | 7.16017 | 23076 ft | 324 kts | 208° |
| 2026-04-25 01:13 | 43.19230 | 7.14581 | 23076 ft | 324 kts | 208° |
| 2026-04-25 01:13 | 43.17223 | 7.13141 | 23072 ft | 325 kts | 208° |
| 2026-04-25 01:13 | 43.15227 | 7.11707 | 23077 ft | 325 kts | 208° |
| 2026-04-25 01:14 | 43.13225 | 7.10271 | 23079 ft | 325 kts | 208° |
| 2026-04-25 01:14 | 43.11222 | 7.08840 | 23080 ft | 325 kts | 208° |
| 2026-04-25 01:14 | 43.09220 | 7.07404 | 23082 ft | 325 kts | 208° |
| 2026-04-25 01:14 | 43.07216 | 7.05972 | 23081 ft | 325 kts | 208° |
| 2026-04-25 01:15 | 43.05212 | 7.04539 | 23088 ft | 325 kts | 208° |
| 2026-04-25 01:15 | 43.03229 | 7.03122 | 23084 ft | 325 kts | 208° |
| 2026-04-25 01:15 | 43.01225 | 7.01691 | 23084 ft | 325 kts | 208° |
| 2026-04-25 01:15 | 42.99219 | 7.00262 | 23086 ft | 325 kts | 208° |
| 2026-04-25 01:16 | 42.97211 | 6.98830 | 23086 ft | 326 kts | 208° |
| 2026-04-25 01:16 | 42.95199 | 6.97398 | 23091 ft | 326 kts | 208° |
| 2026-04-25 01:16 | 42.93195 | 6.95971 | 23090 ft | 326 kts | 208° |
| 2026-04-25 01:16 | 42.91183 | 6.94541 | 23089 ft | 326 kts | 208° |
| 2026-04-25 01:17 | 42.89172 | 6.93111 | 23092 ft | 326 kts | 208° |
| 2026-04-25 01:17 | 42.87160 | 6.91684 | 23092 ft | 326 kts | 208° |
| 2026-04-25 01:17 | 42.85147 | 6.90254 | 23092 ft | 326 kts | 208° |
| 2026-04-25 01:17 | 42.83131 | 6.88826 | 23095 ft | 326 kts | 208° |
| 2026-04-25 01:18 | 42.81115 | 6.87396 | 23096 ft | 327 kts | 208° |
| 2026-04-25 01:18 | 42.79101 | 6.85972 | 23096 ft | 327 kts | 208° |
| 2026-04-25 01:18 | 42.77082 | 6.84544 | 23094 ft | 327 kts | 208° |
| 2026-04-25 01:18 | 42.75067 | 6.83117 | 23098 ft | 327 kts | 208° |
| 2026-04-25 01:19 | 42.73048 | 6.81692 | 23098 ft | 327 kts | 208° |
| 2026-04-25 01:19 | 42.71033 | 6.80270 | 23104 ft | 326 kts | 208° |
| 2026-04-25 01:19 | 42.69019 | 6.78849 | 23099 ft | 326 kts | 208° |
| 2026-04-25 01:19 | 42.67000 | 6.77428 | 23099 ft | 326 kts | 208° |
| 2026-04-25 01:20 | 42.64985 | 6.76007 | 23102 ft | 326 kts | 208° |
| 2026-04-25 01:20 | 42.62972 | 6.74590 | 23101 ft | 326 kts | 208° |
| 2026-04-25 01:20 | 42.60954 | 6.73172 | 23104 ft | 326 kts | 208° |
| 2026-04-25 01:20 | 42.58941 | 6.71757 | 23103 ft | 326 kts | 208° |
| 2026-04-25 01:21 | 42.56925 | 6.70341 | 23106 ft | 326 kts | 208° |
| 2026-04-25 01:21 | 42.54910 | 6.68927 | 23109 ft | 326 kts | 208° |
| 2026-04-25 01:21 | 42.52898 | 6.67517 | 23107 ft | 326 kts | 208° |
| 2026-04-25 01:21 | 42.50885 | 6.66106 | 23106 ft | 325 kts | 208° |
| 2026-04-25 01:22 | 42.48902 | 6.64718 | 23109 ft | 325 kts | 208° |
| 2026-04-25 01:22 | 42.46892 | 6.63311 | 23107 ft | 325 kts | 208° |
| 2026-04-25 01:22 | 42.44880 | 6.61904 | 23107 ft | 325 kts | 208° |
| 2026-04-25 01:22 | 42.42872 | 6.60502 | 23110 ft | 325 kts | 208° |
| 2026-04-25 01:23 | 42.40869 | 6.59078 | 23112 ft | 325 kts | 210° |
| 2026-04-25 01:23 | 42.38910 | 6.57563 | 23111 ft | 325 kts | 211° |
| 2026-04-25 01:23 | 42.36967 | 6.56007 | 23111 ft | 324 kts | 212° |
| 2026-04-25 01:23 | 42.35077 | 6.54347 | 23114 ft | 323 kts | 218° |
| 2026-04-25 01:24 | 42.33300 | 6.52478 | 23119 ft | 323 kts | 217° |
| 2026-04-25 01:24 | 42.31473 | 6.50715 | 23114 ft | 323 kts | 217° |
| 2026-04-25 01:24 | 42.29666 | 6.48898 | 23115 ft | 323 kts | 218° |
| 2026-04-25 01:24 | 42.27852 | 6.47106 | 23115 ft | 323 kts | 217° |
| 2026-04-25 01:25 | 42.26039 | 6.45310 | 23116 ft | 323 kts | 217° |
| 2026-04-25 01:25 | 42.24228 | 6.43513 | 23119 ft | 323 kts | 217° |
| 2026-04-25 01:25 | 42.22414 | 6.41720 | 23121 ft | 323 kts | 217° |
| 2026-04-25 01:25 | 42.20601 | 6.39924 | 23124 ft | 323 kts | 217° |
| 2026-04-25 01:26 | 42.18786 | 6.38132 | 23119 ft | 323 kts | 217° |
| 2026-04-25 01:26 | 42.16972 | 6.36340 | 23121 ft | 323 kts | 217° |
| 2026-04-25 01:26 | 42.15160 | 6.34550 | 23121 ft | 323 kts | 217° |
| 2026-04-25 01:26 | 42.13367 | 6.32782 | 23122 ft | 323 kts | 217° |
| 2026-04-25 01:27 | 42.11553 | 6.30994 | 23124 ft | 323 kts | 217° |
| 2026-04-25 01:27 | 42.09734 | 6.29202 | 23127 ft | 323 kts | 217° |
| 2026-04-25 01:27 | 42.07918 | 6.27415 | 23126 ft | 323 kts | 217° |
| 2026-04-25 01:28 | 42.04284 | 6.23841 | 23133 ft | 323 kts | 217° |
| 2026-04-25 01:28 | 42.02466 | 6.22056 | 23130 ft | 323 kts | 217° |
| 2026-04-25 01:28 | 42.00649 | 6.20273 | 23129 ft | 323 kts | 217° |
| 2026-04-25 01:28 | 41.98830 | 6.18489 | 23128 ft | 324 kts | 217° |
| 2026-04-25 01:29 | 41.97011 | 6.16706 | 23130 ft | 324 kts | 217° |
| 2026-04-25 01:29 | 41.95192 | 6.14924 | 23130 ft | 324 kts | 217° |
| 2026-04-25 01:29 | 41.93372 | 6.13143 | 23136 ft | 324 kts | 217° |
| 2026-04-25 01:29 | 41.91555 | 6.11366 | 23134 ft | 324 kts | 217° |
| 2026-04-25 01:30 | 41.89733 | 6.09587 | 23136 ft | 324 kts | 217° |
| 2026-04-25 01:30 | 41.87914 | 6.07809 | 23135 ft | 324 kts | 217° |
| 2026-04-25 01:30 | 41.86091 | 6.06031 | 23133 ft | 324 kts | 217° |
| 2026-04-25 01:30 | 41.84272 | 6.04257 | 23132 ft | 324 kts | 217° |
| 2026-04-25 01:31 | 41.82449 | 6.02481 | 23136 ft | 324 kts | 217° |
| 2026-04-25 01:31 | 41.80627 | 6.00707 | 23135 ft | 324 kts | 217° |
| 2026-04-25 01:31 | 41.78806 | 5.98935 | 23135 ft | 324 kts | 217° |
| 2026-04-25 01:31 | 41.76984 | 5.97164 | 23136 ft | 324 kts | 217° |
| 2026-04-25 01:32 | 41.75161 | 5.95392 | 23135 ft | 324 kts | 217° |
| 2026-04-25 01:32 | 41.73338 | 5.93622 | 23134 ft | 324 kts | 217° |
| 2026-04-25 01:32 | 41.71511 | 5.91850 | 23134 ft | 324 kts | 217° |
| 2026-04-25 01:32 | 41.69712 | 5.90105 | 23137 ft | 324 kts | 217° |
| 2026-04-25 01:33 | 41.67864 | 5.88315 | 23135 ft | 324 kts | 217° |
| 2026-04-25 01:33 | 41.66062 | 5.86570 | 23140 ft | 324 kts | 217° |
| 2026-04-25 01:33 | 41.64238 | 5.84806 | 23137 ft | 324 kts | 217° |
| 2026-04-25 01:33 | 41.62411 | 5.83039 | 23138 ft | 324 kts | 217° |
| 2026-04-25 01:34 | 41.60585 | 5.81275 | 23137 ft | 324 kts | 217° |
| 2026-04-25 01:34 | 41.58760 | 5.79514 | 23138 ft | 324 kts | 217° |
| 2026-04-25 01:34 | 41.56935 | 5.77753 | 23139 ft | 323 kts | 217° |
| 2026-04-25 01:34 | 41.55109 | 5.75993 | 23139 ft | 323 kts | 217° |
| 2026-04-25 01:35 | 41.53286 | 5.74236 | 23139 ft | 323 kts | 217° |
| 2026-04-25 01:35 | 41.51463 | 5.72481 | 23139 ft | 323 kts | 217° |
| 2026-04-25 01:35 | 41.49636 | 5.70724 | 23140 ft | 323 kts | 217° |
| 2026-04-25 01:35 | 41.47812 | 5.68970 | 23139 ft | 323 kts | 217° |
| 2026-04-25 01:36 | 41.45989 | 5.67220 | 23134 ft | 323 kts | 217° |
| 2026-04-25 01:36 | 41.44165 | 5.65469 | 23137 ft | 323 kts | 217° |
| 2026-04-25 01:36 | 41.42345 | 5.63723 | 23136 ft | 323 kts | 217° |
| 2026-04-25 01:36 | 41.40519 | 5.61972 | 23135 ft | 323 kts | 217° |
| 2026-04-25 01:37 | 41.38698 | 5.60229 | 23138 ft | 323 kts | 217° |
| 2026-04-25 01:37 | 41.36877 | 5.58486 | 23140 ft | 323 kts | 217° |
| 2026-04-25 01:37 | 41.35055 | 5.56743 | 23141 ft | 322 kts | 216° |
| 2026-04-25 01:37 | 41.33232 | 5.55001 | 23138 ft | 322 kts | 216° |
| 2026-04-25 01:38 | 41.31414 | 5.53263 | 23139 ft | 322 kts | 216° |
| 2026-04-25 01:38 | 41.29592 | 5.51524 | 23137 ft | 322 kts | 216° |
| 2026-04-25 01:38 | 41.27770 | 5.49787 | 23139 ft | 322 kts | 216° |
| 2026-04-25 01:38 | 41.25951 | 5.48052 | 23137 ft | 322 kts | 216° |
| 2026-04-25 01:39 | 41.24130 | 5.46318 | 23139 ft | 322 kts | 216° |
| 2026-04-25 01:39 | 41.22306 | 5.44582 | 23139 ft | 322 kts | 216° |
| 2026-04-25 01:39 | 41.20484 | 5.42850 | 23138 ft | 322 kts | 216° |
| 2026-04-25 01:39 | 41.18662 | 5.41117 | 23140 ft | 322 kts | 216° |
| 2026-04-25 01:40 | 41.16865 | 5.39410 | 23141 ft | 322 kts | 216° |
| 2026-04-25 01:40 | 41.15044 | 5.37682 | 23144 ft | 322 kts | 216° |
| 2026-04-25 01:40 | 41.13220 | 5.35951 | 23141 ft | 322 kts | 216° |
| 2026-04-25 01:40 | 41.11400 | 5.34227 | 23137 ft | 322 kts | 216° |
| 2026-04-25 01:41 | 41.09574 | 5.32497 | 23143 ft | 322 kts | 216° |
| 2026-04-25 01:41 | 41.07749 | 5.30769 | 23139 ft | 322 kts | 216° |
| 2026-04-25 01:41 | 41.05924 | 5.29043 | 23138 ft | 322 kts | 217° |
| 2026-04-25 01:41 | 41.04101 | 5.27319 | 23138 ft | 322 kts | 217° |
| 2026-04-25 01:42 | 41.02271 | 5.25592 | 23138 ft | 322 kts | 217° |
| 2026-04-25 01:42 | 41.00444 | 5.23867 | 23141 ft | 323 kts | 217° |
| 2026-04-25 01:42 | 40.98617 | 5.22143 | 23139 ft | 323 kts | 217° |
| 2026-04-25 01:42 | 40.96788 | 5.20419 | 23139 ft | 323 kts | 217° |
| 2026-04-25 01:43 | 40.94957 | 5.18696 | 23139 ft | 323 kts | 217° |
| 2026-04-25 01:43 | 40.93126 | 5.16971 | 23140 ft | 323 kts | 217° |
| 2026-04-25 01:43 | 40.91290 | 5.15245 | 23139 ft | 323 kts | 217° |
| 2026-04-25 01:43 | 40.89457 | 5.13522 | 23140 ft | 323 kts | 217° |
| 2026-04-25 01:44 | 40.87623 | 5.11798 | 23133 ft | 324 kts | 217° |
| 2026-04-25 01:44 | 40.85785 | 5.10073 | 22969 ft | 322 kts | 217° |
| 2026-04-25 01:44 | 40.83968 | 5.08369 | 22653 ft | 321 kts | 217° |
| 2026-04-25 01:44 | 40.82147 | 5.06662 | 22274 ft | 321 kts | 217° |
| 2026-04-25 01:45 | 40.80323 | 5.04953 | 21851 ft | 322 kts | 217° |
| 2026-04-25 01:45 | 40.78494 | 5.03241 | 21444 ft | 323 kts | 217° |
| 2026-04-25 01:45 | 40.76666 | 5.01531 | 21035 ft | 319 kts | 217° |
| 2026-04-25 01:45 | 40.74874 | 4.99856 | 20637 ft | 313 kts | 217° |
| 2026-04-25 01:46 | 40.73107 | 4.98205 | 20245 ft | 309 kts | 217° |
| 2026-04-25 01:46 | 40.71361 | 4.96576 | 19857 ft | 306 kts | 217° |
| 2026-04-25 01:46 | 40.69636 | 4.94965 | 19474 ft | 303 kts | 217° |
| 2026-04-25 01:46 | 40.67920 | 4.93366 | 19096 ft | 301 kts | 217° |
| 2026-04-25 01:47 | 40.66215 | 4.91776 | 18720 ft | 300 kts | 217° |
| 2026-04-25 01:47 | 40.64517 | 4.90196 | 18337 ft | 298 kts | 217° |
| 2026-04-25 01:47 | 40.62827 | 4.88622 | 17907 ft | 297 kts | 217° |
| 2026-04-25 01:47 | 40.61143 | 4.87057 | 17491 ft | 296 kts | 217° |
| 2026-04-25 01:48 | 40.59468 | 4.85500 | 17074 ft | 294 kts | 217° |
| 2026-04-25 01:48 | 40.57798 | 4.83949 | 16664 ft | 293 kts | 216° |
| 2026-04-25 01:48 | 40.56134 | 4.82404 | 16262 ft | 292 kts | 216° |
| 2026-04-25 01:48 | 40.54499 | 4.80888 | 15861 ft | 291 kts | 216° |
| 2026-04-25 01:49 | 40.52851 | 4.79359 | 15476 ft | 290 kts | 216° |
| 2026-04-25 01:49 | 40.51206 | 4.77835 | 15088 ft | 289 kts | 216° |
| 2026-04-25 01:49 | 40.49564 | 4.76316 | 14703 ft | 287 kts | 216° |
| 2026-04-25 01:49 | 40.47937 | 4.74810 | 14326 ft | 286 kts | 216° |
| 2026-04-25 01:50 | 40.46334 | 4.73327 | 13979 ft | 277 kts | 216° |
| 2026-04-25 01:50 | 40.44780 | 4.71892 | 13613 ft | 269 kts | 216° |
| 2026-04-25 01:50 | 40.43268 | 4.70494 | 13240 ft | 262 kts | 216° |
| 2026-04-25 01:50 | 40.41800 | 4.69138 | 12879 ft | 255 kts | 215° |
| 2026-04-25 01:51 | 40.40390 | 4.67785 | 12525 ft | 248 kts | 217° |
| 2026-04-25 01:51 | 40.38980 | 4.66518 | 12166 ft | 243 kts | 212° |
| 2026-04-25 01:51 | 40.37563 | 4.65341 | 11817 ft | 239 kts | 213° |
| 2026-04-25 01:51 | 40.36190 | 4.64138 | 11476 ft | 236 kts | 213° |
| 2026-04-25 01:52 | 40.34826 | 4.62964 | 11127 ft | 233 kts | 213° |
| 2026-04-25 01:52 | 40.33475 | 4.61810 | 10789 ft | 231 kts | 213° |
| 2026-04-25 01:52 | 40.32142 | 4.60660 | 10493 ft | 227 kts | 213° |
| 2026-04-25 01:52 | 40.31270 | 4.59910 | 10309 ft | 225 kts | 213° |
| 2026-04-25 01:53 | 40.29953 | 4.58778 | 10020 ft | 228 kts | 212° |
| 2026-04-25 01:53 | 40.28620 | 4.57636 | 9712 ft | 230 kts | 212° |
| 2026-04-25 01:53 | 40.27277 | 4.56482 | 9402 ft | 231 kts | 213° |
| 2026-04-25 01:53 | 40.25930 | 4.55327 | 9088 ft | 232 kts | 213° |
| 2026-04-25 01:54 | 40.24579 | 4.54168 | 8783 ft | 232 kts | 212° |
| 2026-04-25 01:54 | 40.23237 | 4.53019 | 8527 ft | 227 kts | 212° |
| 2026-04-25 01:54 | 40.21936 | 4.51905 | 8278 ft | 220 kts | 212° |
| 2026-04-25 01:54 | 40.20685 | 4.50833 | 8028 ft | 212 kts | 213° |
| 2026-04-25 01:55 | 40.19464 | 4.49787 | 7775 ft | 206 kts | 213° |
| 2026-04-25 01:55 | 40.18277 | 4.48773 | 7538 ft | 202 kts | 213° |
| 2026-04-25 01:55 | 40.17112 | 4.47776 | 7303 ft | 198 kts | 212° |
| 2026-04-25 01:55 | 40.15976 | 4.46804 | 7108 ft | 193 kts | 213° |
| 2026-04-25 01:56 | 40.14866 | 4.45857 | 6916 ft | 189 kts | 213° |
| 2026-04-25 01:56 | 40.13777 | 4.44927 | 6722 ft | 186 kts | 213° |
| 2026-04-25 01:56 | 40.12704 | 4.44011 | 6518 ft | 183 kts | 213° |
| 2026-04-25 01:56 | 40.11641 | 4.43103 | 6332 ft | 181 kts | 213° |
| 2026-04-25 01:57 | 40.09548 | 4.41319 | 5921 ft | 178 kts | 212° |
| 2026-04-25 01:57 | 40.08514 | 4.40438 | 5725 ft | 177 kts | 212° |
| 2026-04-25 01:57 | 40.07475 | 4.39581 | 5525 ft | 176 kts | 213° |
| 2026-04-25 01:58 | 40.06473 | 4.38672 | 5328 ft | 175 kts | 215° |
| 2026-04-25 01:58 | 40.05496 | 4.37764 | 5133 ft | 174 kts | 217° |
| 2026-04-25 01:58 | 40.04760 | 4.36503 | 4932 ft | 173 kts | 239° |
| 2026-04-25 01:58 | 40.04424 | 4.35041 | 4736 ft | 172 kts | 280° |
| 2026-04-25 01:59 | 40.04896 | 4.33623 | 4537 ft | 171 kts | 298° |
| 2026-04-25 01:59 | 40.05468 | 4.32259 | 4333 ft | 172 kts | 300° |
| 2026-04-25 01:59 | 40.06060 | 4.30905 | 4126 ft | 172 kts | 300° |
| 2026-04-25 01:59 | 40.06629 | 4.29554 | 3863 ft | 175 kts | 294° |
| 2026-04-25 02:00 | 40.06912 | 4.28007 | 3540 ft | 174 kts | 275° |
| 2026-04-25 02:00 | 40.06826 | 4.26448 | 3190 ft | 173 kts | 256° |
| 2026-04-25 02:00 | 40.06333 | 4.25020 | 2816 ft | 173 kts | 235° |
| 2026-04-25 02:00 | 40.05509 | 4.23903 | 2471 ft | 170 kts | 214° |
| 2026-04-25 02:01 | 40.04488 | 4.23255 | 2186 ft | 153 kts | 193° |
| 2026-04-25 02:01 | 40.03463 | 4.23124 | 1837 ft | 147 kts | 173° |
| 2026-04-25 02:01 | 40.02481 | 4.23314 | 1559 ft | 137 kts | 168° |
| 2026-04-25 02:01 | 40.01506 | 4.23557 | 1560 ft | 148 kts | 167° |
| 2026-04-25 02:02 | 40.00475 | 4.23793 | 1644 ft | 154 kts | 171° |
| 2026-04-25 02:02 | 39.99381 | 4.23919 | 1657 ft | 151 kts | 175° |
| 2026-04-25 02:02 | 39.98377 | 4.23884 | 1664 ft | 147 kts | 182° |
| 2026-04-25 02:02 | 39.97349 | 4.23794 | 1599 ft | 150 kts | 180° |
| 2026-04-25 02:03 | 39.96295 | 4.23764 | 1482 ft | 148 kts | 179° |
| 2026-04-25 02:03 | 39.95289 | 4.23659 | 1466 ft | 152 kts | 186° |
| 2026-04-25 02:03 | 39.94293 | 4.23468 | 1502 ft | 136 kts | 187° |
| 2026-04-25 02:03 | 39.93308 | 4.23290 | 1440 ft | 147 kts | 187° |
| 2026-04-25 02:04 | 39.92307 | 4.23097 | 1348 ft | 144 kts | 185° |
| 2026-04-25 02:04 | 39.91345 | 4.22895 | 1210 ft | 138 kts | 186° |
| 2026-04-25 02:04 | 39.90402 | 4.22722 | 1031 ft | 135 kts | 188° |
| 2026-04-25 02:04 | 39.89565 | 4.22541 | 880 ft | 111 kts | 187° |
| 2026-04-25 02:05 | 39.88769 | 4.22378 | 687 ft | 121 kts | 186° |
| 2026-04-25 02:05 | 39.87925 | 4.22215 | 465 ft | 122 kts | 187° |
| 2026-04-25 02:05 | 39.87156 | 4.22052 | 314 ft | 96 kts | 186° |
| 2026-04-25 02:05 | 39.86669 | 4.21954 | 297 ft | 17 kts | 190° |
| 2026-04-25 02:06 | 39.86687 | 4.21959 | 297 ft | 5 kts | 162° |
| 2026-04-25 02:06 | 39.86601 | 4.21953 | 297 ft | 14 kts | 161° |
| 2026-04-25 02:06 | 39.86571 | 4.22009 | 298 ft | 0 kts | 101° |
| 2026-04-25 02:07 | 39.86567 | 4.22036 | 300 ft | 11 kts | 101° |
| 2026-04-25 02:07 | 39.86572 | 4.22157 | 300 ft | 14 kts | 43° |
| 2026-04-25 02:07 | 39.86644 | 4.22185 | 299 ft | 10 kts | 7° |
| 2026-04-25 02:08 | 39.86736 | 4.22202 | 300 ft | 17 kts | 9° |
| 2026-04-25 02:08 | 39.86859 | 4.22228 | 301 ft | 18 kts | 12° |
| 2026-04-25 02:08 | 39.86924 | 4.22328 | 302 ft | 16 kts | 101° |
| 2026-04-25 02:08 | 39.86844 | 4.22398 | 301 ft | 18 kts | 195° |
| 2026-04-25 02:09 | 39.86768 | 4.22395 | 300 ft | 5 kts | 102° |
| 2026-04-25 02:09 | 39.86768 | 4.22467 | 300 ft | 8 kts | 102° |
| 2026-04-25 02:09 | 39.86765 | 4.22485 | 301 ft | 0 kts | 98° |